createdAt,value
2022-10-06T00:00:00.333Z,69.09
2022-10-06T00:01:01.549Z,69.09
2022-10-06T00:02:00.272Z,69.00
2022-10-06T00:03:00.446Z,69.00
2022-10-06T00:04:00.307Z,69.00
2022-10-06T00:05:00.326Z,69.00
2022-10-06T00:06:01.263Z,69.00
2022-10-06T00:07:00.376Z,69.09
2022-10-06T00:08:00.343Z,69.09
2022-10-06T00:09:00.323Z,69.09
2022-10-06T00:10:00.317Z,69.09
2022-10-06T00:11:00.763Z,69.09
2022-10-06T00:12:00.287Z,69.20
2022-10-06T00:13:00.767Z,69.20
2022-10-06T00:14:00.288Z,69.20
2022-10-06T00:15:00.294Z,69.20
2022-10-06T00:16:00.516Z,69.20
2022-10-06T00:17:00.358Z,69.29
2022-10-06T00:18:00.885Z,69.29
2022-10-06T00:19:00.312Z,69.29
2022-10-06T00:20:00.380Z,69.29
2022-10-06T00:21:00.358Z,69.29
2022-10-06T00:22:00.343Z,69.41
2022-10-06T00:23:00.306Z,69.41
2022-10-06T00:24:00.330Z,69.41
2022-10-06T00:25:00.464Z,69.41
2022-10-06T00:26:00.409Z,69.41
2022-10-06T00:27:00.418Z,69.35
2022-10-06T00:28:00.689Z,69.35
2022-10-06T00:29:01.367Z,69.35
2022-10-06T00:30:00.426Z,69.35
2022-10-06T00:31:01.129Z,69.35
2022-10-06T00:32:00.296Z,69.39
2022-10-06T00:33:01.169Z,69.39
2022-10-06T00:34:00.356Z,69.39
2022-10-06T00:35:00.420Z,69.39
2022-10-06T00:36:00.301Z,69.39
2022-10-06T00:37:00.298Z,69.48
2022-10-06T00:38:00.534Z,69.48
2022-10-06T00:39:00.306Z,69.48
2022-10-06T00:40:00.439Z,69.48
2022-10-06T00:41:00.372Z,69.48
2022-10-06T00:42:00.311Z,69.47
2022-10-06T00:43:02.321Z,69.47
2022-10-06T00:44:00.508Z,69.47
2022-10-06T00:45:02.427Z,69.47
2022-10-06T00:46:00.505Z,69.47
2022-10-06T00:47:00.719Z,69.52
2022-10-06T00:48:02.525Z,69.52
2022-10-06T00:49:06.592Z,69.52
2022-10-06T00:50:00.389Z,69.52
2022-10-06T00:51:00.497Z,69.52
2022-10-06T00:52:02.985Z,69.80
2022-10-06T00:53:00.921Z,69.80
2022-10-06T00:54:01.252Z,69.80
2022-10-06T00:55:00.503Z,69.80
2022-10-06T00:56:00.331Z,69.80
2022-10-06T00:57:00.340Z,69.80
2022-10-06T00:58:00.509Z,69.80
2022-10-06T00:59:00.284Z,69.80
2022-10-06T01:00:00.391Z,69.80
2022-10-06T01:01:00.675Z,69.80
2022-10-06T01:02:03.002Z,69.77
2022-10-06T01:03:05.417Z,69.77
2022-10-06T01:04:05.013Z,69.77
2022-10-06T01:05:02.083Z,69.77
2022-10-06T01:06:00.907Z,69.77
2022-10-06T01:07:00.773Z,69.81
2022-10-06T01:08:00.550Z,69.81
2022-10-06T01:09:00.390Z,69.81
2022-10-06T01:10:00.345Z,69.81
2022-10-06T01:11:00.361Z,69.81
2022-10-06T01:12:02.314Z,69.87
2022-10-06T01:13:01.072Z,69.87
2022-10-06T01:14:00.290Z,69.87
2022-10-06T01:15:00.776Z,69.87
2022-10-06T01:16:06.111Z,69.87
2022-10-06T01:17:06.187Z,69.90
2022-10-06T01:18:03.181Z,69.90
2022-10-06T01:19:01.426Z,69.90
2022-10-06T01:20:05.258Z,69.90
2022-10-06T01:21:06.013Z,69.90
2022-10-06T01:22:02.515Z,70.15
2022-10-06T01:23:02.327Z,70.15
2022-10-06T01:24:01.160Z,70.15
2022-10-06T01:25:01.002Z,70.15
2022-10-06T01:26:03.667Z,70.15
2022-10-06T01:27:00.518Z,70.17
2022-10-06T01:28:01.916Z,70.17
2022-10-06T01:29:00.477Z,70.17
2022-10-06T01:30:00.681Z,70.17
2022-10-06T01:31:00.965Z,70.17
2022-10-06T01:32:00.585Z,70.14
2022-10-06T01:33:00.342Z,70.14
2022-10-06T01:34:00.323Z,70.14
2022-10-06T01:35:00.313Z,70.14
2022-10-06T01:36:00.292Z,70.14
2022-10-06T01:37:00.322Z,70.11
2022-10-06T01:38:00.339Z,70.11
2022-10-06T01:39:00.306Z,70.11
2022-10-06T01:40:00.400Z,70.11
2022-10-06T01:41:00.497Z,70.11
2022-10-06T01:42:00.319Z,70.36
2022-10-06T01:43:00.299Z,70.36
2022-10-06T01:44:00.288Z,70.36
2022-10-06T01:45:00.769Z,70.36
2022-10-06T01:46:00.337Z,70.36
2022-10-06T01:47:00.486Z,70.32
2022-10-06T01:48:00.280Z,70.32
2022-10-06T01:49:00.302Z,70.32
2022-10-06T01:50:00.319Z,70.32
2022-10-06T01:51:00.281Z,70.32
2022-10-06T01:52:00.642Z,70.50
2022-10-06T01:53:00.349Z,70.50
2022-10-06T01:54:00.288Z,70.50
2022-10-06T01:55:00.311Z,70.50
2022-10-06T01:56:00.287Z,70.50
2022-10-06T01:57:00.452Z,70.62
2022-10-06T01:58:00.283Z,70.62
2022-10-06T01:59:00.321Z,70.62
2022-10-06T02:00:00.337Z,70.62
2022-10-06T02:01:04.561Z,70.62
2022-10-06T02:02:00.396Z,70.38
2022-10-06T02:03:00.499Z,70.38
2022-10-06T02:04:00.379Z,70.38
2022-10-06T02:05:00.296Z,70.38
2022-10-06T02:06:00.471Z,70.38
2022-10-06T02:07:00.370Z,70.47
2022-10-06T02:08:01.029Z,70.47
2022-10-06T02:09:00.307Z,70.47
2022-10-06T02:10:00.408Z,70.47
2022-10-06T02:11:08.495Z,70.47
2022-10-06T02:12:00.289Z,70.51
2022-10-06T02:13:00.307Z,70.51
2022-10-06T02:14:00.319Z,70.51
2022-10-06T02:15:00.309Z,70.51
2022-10-06T02:16:00.377Z,70.51
2022-10-06T02:17:00.316Z,70.82
2022-10-06T02:18:00.308Z,70.82
2022-10-06T02:19:00.602Z,70.82
2022-10-06T02:20:00.322Z,70.82
2022-10-06T02:21:01.123Z,70.82
2022-10-06T02:22:00.497Z,71.12
2022-10-06T02:23:00.273Z,71.12
2022-10-06T02:24:00.378Z,71.12
2022-10-06T02:25:00.292Z,71.12
2022-10-06T02:26:01.598Z,71.12
2022-10-06T02:27:00.300Z,71.04
2022-10-06T02:28:00.434Z,71.04
2022-10-06T02:29:00.359Z,71.04
2022-10-06T02:30:00.307Z,71.04
2022-10-06T02:31:02.027Z,71.04
2022-10-06T02:32:00.358Z,70.96
2022-10-06T02:33:00.272Z,70.96
2022-10-06T02:34:00.278Z,70.96
2022-10-06T02:35:00.465Z,70.96
2022-10-06T02:36:00.415Z,70.96
2022-10-06T02:37:00.324Z,70.86
2022-10-06T02:38:00.309Z,70.86
2022-10-06T02:39:00.351Z,70.86
2022-10-06T02:40:00.524Z,70.86
2022-10-06T02:41:00.678Z,70.86
2022-10-06T02:42:00.282Z,70.94
2022-10-06T02:43:00.279Z,70.94
2022-10-06T02:44:00.311Z,70.94
2022-10-06T02:45:00.508Z,70.94
2022-10-06T02:46:02.750Z,70.94
2022-10-06T02:47:00.302Z,70.98
2022-10-06T02:48:00.308Z,70.98
2022-10-06T02:49:00.367Z,70.98
2022-10-06T02:50:00.865Z,70.98
2022-10-06T02:51:02.110Z,70.98
2022-10-06T02:52:00.301Z,71.26
2022-10-06T02:53:00.285Z,71.26
2022-10-06T02:54:00.288Z,71.26
2022-10-06T02:55:01.360Z,71.26
2022-10-06T02:56:01.856Z,71.26
2022-10-06T02:57:00.280Z,71.16
2022-10-06T02:58:00.523Z,71.16
2022-10-06T02:59:00.292Z,71.16
2022-10-06T03:00:00.414Z,71.16
2022-10-06T03:01:01.325Z,71.16
2022-10-06T03:02:00.416Z,71.29
2022-10-06T03:03:00.337Z,71.29
2022-10-06T03:04:00.294Z,71.29
2022-10-06T03:05:00.527Z,71.29
2022-10-06T03:06:04.732Z,71.29
2022-10-06T03:07:00.274Z,71.34
2022-10-06T03:08:00.286Z,71.34
2022-10-06T03:09:01.562Z,71.34
2022-10-06T03:10:00.303Z,71.34
2022-10-06T03:11:01.577Z,71.34
2022-10-06T03:12:00.409Z,71.33
2022-10-06T03:13:00.309Z,71.33
2022-10-06T03:14:00.365Z,71.33
2022-10-06T03:15:00.276Z,71.33
2022-10-06T03:16:00.382Z,71.33
2022-10-06T03:17:00.277Z,71.28
2022-10-06T03:18:00.703Z,71.28
2022-10-06T03:19:00.557Z,71.28
2022-10-06T03:20:00.328Z,71.28
2022-10-06T03:21:00.383Z,71.28
2022-10-06T03:22:01.010Z,71.84
2022-10-06T03:23:00.304Z,71.84
2022-10-06T03:24:00.435Z,71.84
2022-10-06T03:25:00.320Z,71.84
2022-10-06T03:26:00.449Z,71.84
2022-10-06T03:27:00.298Z,71.79
2022-10-06T03:28:00.358Z,71.79
2022-10-06T03:29:00.717Z,71.79
2022-10-06T03:30:00.294Z,71.79
2022-10-06T03:31:01.351Z,71.79
2022-10-06T03:32:00.318Z,71.62
2022-10-06T03:33:00.403Z,71.62
2022-10-06T03:34:00.332Z,71.62
2022-10-06T03:35:00.328Z,71.62
2022-10-06T03:36:01.603Z,71.62
2022-10-06T03:37:00.322Z,71.65
2022-10-06T03:38:00.332Z,71.65
2022-10-06T03:39:01.438Z,71.65
2022-10-06T03:40:00.331Z,71.65
2022-10-06T03:41:06.888Z,71.65
2022-10-06T03:42:00.366Z,71.69
2022-10-06T03:43:00.340Z,71.69
2022-10-06T03:44:00.668Z,71.69
2022-10-06T03:45:00.391Z,71.69
2022-10-06T03:46:00.877Z,71.69
2022-10-06T03:47:00.444Z,71.70
2022-10-06T03:48:00.359Z,71.70
2022-10-06T03:49:00.515Z,71.70
2022-10-06T03:50:00.541Z,71.70
2022-10-06T03:51:01.429Z,71.70
2022-10-06T03:52:00.547Z,72.15
2022-10-06T03:53:00.394Z,72.15
2022-10-06T03:54:00.402Z,72.15
2022-10-06T03:55:00.474Z,72.15
2022-10-06T03:56:01.611Z,72.15
2022-10-06T03:57:00.350Z,72.26
2022-10-06T03:58:00.337Z,72.26
2022-10-06T03:59:01.647Z,72.26
2022-10-06T04:00:00.402Z,72.26
2022-10-06T04:01:01.256Z,72.26
2022-10-06T04:02:00.363Z,72.28
2022-10-06T04:03:00.347Z,72.28
2022-10-06T04:04:00.745Z,72.28
2022-10-06T04:05:00.330Z,72.28
2022-10-06T04:06:01.425Z,72.28
2022-10-06T04:07:00.346Z,72.23
2022-10-06T04:08:00.317Z,72.23
2022-10-06T04:09:00.356Z,72.23
2022-10-06T04:10:00.345Z,72.23
2022-10-06T04:11:09.302Z,72.23
2022-10-06T04:12:00.316Z,72.51
2022-10-06T04:13:00.297Z,72.51
2022-10-06T04:14:02.989Z,72.51
2022-10-06T04:15:00.491Z,72.51
2022-10-06T04:16:10.269Z,72.51
2022-10-06T04:17:00.324Z,72.55
2022-10-06T04:18:00.304Z,72.55
2022-10-06T04:19:01.713Z,72.55
2022-10-06T04:20:00.308Z,72.55
2022-10-06T04:21:00.311Z,72.55
2022-10-06T04:22:00.306Z,72.97
2022-10-06T04:23:00.299Z,72.97
2022-10-06T04:24:00.340Z,72.97
2022-10-06T04:25:00.400Z,72.97
2022-10-06T04:26:00.365Z,72.97
2022-10-06T04:27:00.360Z,72.91
2022-10-06T04:28:00.364Z,72.91
2022-10-06T04:29:00.380Z,72.91
2022-10-06T04:30:00.343Z,72.91
2022-10-06T04:31:00.880Z,72.91
2022-10-06T04:32:00.415Z,72.91
2022-10-06T04:33:00.389Z,72.91
2022-10-06T04:34:00.742Z,72.91
2022-10-06T04:35:00.332Z,72.91
2022-10-06T04:36:01.651Z,72.91
2022-10-06T04:37:00.353Z,72.89
2022-10-06T04:38:00.354Z,72.89
2022-10-06T04:39:01.347Z,72.89
2022-10-06T04:40:00.332Z,72.89
2022-10-06T04:41:10.167Z,72.89
2022-10-06T04:42:00.296Z,72.82
2022-10-06T04:43:00.302Z,72.82
2022-10-06T04:44:00.915Z,72.82
2022-10-06T04:45:00.395Z,72.82
2022-10-06T04:46:13.110Z,72.82
2022-10-06T04:47:00.416Z,72.73
2022-10-06T04:48:00.311Z,72.73
2022-10-06T04:49:00.474Z,72.73
2022-10-06T04:50:00.334Z,72.73
2022-10-06T04:51:01.594Z,72.73
2022-10-06T04:52:00.348Z,73.23
2022-10-06T04:53:00.306Z,73.23
2022-10-06T04:54:00.340Z,73.23
2022-10-06T04:55:00.343Z,73.23
2022-10-06T04:56:03.598Z,73.23
2022-10-06T04:57:00.498Z,73.21
2022-10-06T04:58:00.317Z,73.21
2022-10-06T04:59:00.343Z,73.21
2022-10-06T05:00:05.489Z,73.21
2022-10-06T05:01:01.055Z,73.21
2022-10-06T05:02:00.398Z,73.25
2022-10-06T05:03:00.318Z,73.25
2022-10-06T05:04:01.563Z,73.25
2022-10-06T05:05:00.255Z,73.25
2022-10-06T05:06:02.758Z,73.25
2022-10-06T05:07:00.349Z,73.22
2022-10-06T05:08:00.991Z,73.22
2022-10-06T05:09:01.920Z,73.22
2022-10-06T05:10:00.275Z,73.22
2022-10-06T05:11:02.466Z,73.22
2022-10-06T05:12:00.287Z,73.30
2022-10-06T05:13:00.351Z,73.30
2022-10-06T05:14:00.375Z,73.30
2022-10-06T05:15:00.304Z,73.30
2022-10-06T05:16:00.850Z,73.30
2022-10-06T05:17:00.273Z,73.42
2022-10-06T05:18:00.264Z,73.42
2022-10-06T05:19:00.264Z,73.42
2022-10-06T05:20:00.466Z,73.42
2022-10-06T05:21:06.357Z,73.42
2022-10-06T05:22:00.310Z,73.93
2022-10-06T05:23:00.285Z,73.93
2022-10-06T05:24:00.417Z,73.93
2022-10-06T05:25:00.284Z,73.93
2022-10-06T05:26:00.342Z,73.93
2022-10-06T05:27:01.820Z,73.99
2022-10-06T05:28:00.347Z,73.99
2022-10-06T05:29:00.824Z,73.99
2022-10-06T05:30:00.287Z,73.99
2022-10-06T05:31:00.278Z,73.99
2022-10-06T05:32:00.344Z,73.78
2022-10-06T05:33:00.295Z,73.78
2022-10-06T05:34:00.276Z,73.78
2022-10-06T05:35:00.275Z,73.78
2022-10-06T05:36:04.506Z,73.78
2022-10-06T05:37:00.287Z,73.75
2022-10-06T05:38:00.284Z,73.75
2022-10-06T05:39:00.874Z,73.75
2022-10-06T05:40:00.324Z,73.75
2022-10-06T05:41:01.023Z,73.75
2022-10-06T05:42:00.278Z,73.56
2022-10-06T05:43:00.287Z,73.56
2022-10-06T05:44:00.480Z,73.56
2022-10-06T05:45:00.269Z,73.56
2022-10-06T05:46:01.777Z,73.56
2022-10-06T05:47:00.295Z,74.00
2022-10-06T05:48:00.332Z,74.00
2022-10-06T05:49:02.051Z,74.00
2022-10-06T05:50:00.355Z,74.00
2022-10-06T05:51:02.392Z,74.00
2022-10-06T05:52:00.274Z,74.21
2022-10-06T05:53:00.274Z,74.21
2022-10-06T05:54:00.817Z,74.21
2022-10-06T05:55:00.371Z,74.21
2022-10-06T05:56:03.556Z,74.21
2022-10-06T05:57:00.354Z,74.28
2022-10-06T05:58:00.310Z,74.28
2022-10-06T05:59:00.586Z,74.28
2022-10-06T06:00:00.319Z,74.28
2022-10-06T06:01:10.196Z,74.28
2022-10-06T06:02:00.468Z,74.40
2022-10-06T06:03:00.354Z,74.40
2022-10-06T06:04:01.867Z,74.40
2022-10-06T06:05:00.324Z,74.40
2022-10-06T06:06:00.325Z,74.40
2022-10-06T06:07:00.283Z,74.43
2022-10-06T06:08:00.277Z,74.43
2022-10-06T06:09:02.397Z,74.43
2022-10-06T06:10:00.278Z,74.43
2022-10-06T06:11:07.776Z,74.43
2022-10-06T06:12:00.513Z,74.70
2022-10-06T06:13:00.271Z,74.70
2022-10-06T06:14:01.261Z,74.70
2022-10-06T06:15:00.284Z,74.70
2022-10-06T06:16:01.163Z,74.70
2022-10-06T06:17:00.431Z,74.32
2022-10-06T06:18:00.297Z,74.32
2022-10-06T06:19:00.666Z,74.32
2022-10-06T06:20:00.299Z,74.32
2022-10-06T06:21:01.466Z,74.32
2022-10-06T06:22:00.275Z,74.96
2022-10-06T06:23:00.278Z,74.96
2022-10-06T06:24:01.422Z,74.96
2022-10-06T06:25:00.438Z,74.96
2022-10-06T06:26:02.649Z,74.96
2022-10-06T06:27:00.326Z,75.05
2022-10-06T06:28:00.373Z,75.05
2022-10-06T06:29:00.568Z,75.05
2022-10-06T06:30:00.277Z,75.05
2022-10-06T06:31:04.949Z,75.05
2022-10-06T06:32:00.356Z,74.58
2022-10-06T06:33:00.286Z,74.58
2022-10-06T06:34:00.784Z,74.58
2022-10-06T06:35:00.284Z,74.58
2022-10-06T06:36:00.451Z,74.58
2022-10-06T06:37:06.762Z,74.78
2022-10-06T06:38:00.301Z,74.78
2022-10-06T06:39:02.596Z,74.78
2022-10-06T06:40:00.309Z,74.78
2022-10-06T06:41:00.274Z,74.78
2022-10-06T06:42:00.311Z,74.96
2022-10-06T06:43:00.267Z,74.96
2022-10-06T06:44:00.293Z,74.96
2022-10-06T06:45:00.279Z,74.96
2022-10-06T06:46:02.158Z,74.96
2022-10-06T06:47:00.287Z,75.58
2022-10-06T06:48:00.274Z,75.58
2022-10-06T06:49:01.189Z,75.58
2022-10-06T06:50:00.374Z,75.58
2022-10-06T06:51:00.331Z,75.58
2022-10-06T06:52:00.270Z,75.60
2022-10-06T06:53:00.304Z,75.60
2022-10-06T06:54:00.378Z,75.60
2022-10-06T06:55:00.290Z,75.60
2022-10-06T06:56:00.390Z,75.60
2022-10-06T06:57:00.393Z,75.38
2022-10-06T06:58:00.306Z,75.38
2022-10-06T06:59:00.931Z,75.38
2022-10-06T07:00:00.359Z,75.38
2022-10-06T07:01:04.673Z,75.38
2022-10-06T07:02:00.331Z,75.45
2022-10-06T07:03:00.259Z,75.45
2022-10-06T07:04:00.312Z,75.45
2022-10-06T07:05:00.307Z,75.45
2022-10-06T07:06:04.226Z,75.45
2022-10-06T07:07:00.273Z,75.35
2022-10-06T07:08:00.270Z,75.35
2022-10-06T07:09:00.295Z,75.35
2022-10-06T07:10:00.365Z,75.35
2022-10-06T07:11:09.131Z,75.35
2022-10-06T07:12:00.286Z,75.78
2022-10-06T07:13:00.264Z,75.78
2022-10-06T07:14:02.586Z,75.78
2022-10-06T07:15:00.351Z,75.78
2022-10-06T07:16:00.328Z,75.78
2022-10-06T07:17:00.279Z,75.58
2022-10-06T07:18:01.572Z,75.58
2022-10-06T07:19:00.864Z,75.58
2022-10-06T07:20:00.293Z,75.58
2022-10-06T07:21:00.381Z,75.58
2022-10-06T07:22:02.380Z,76.07
2022-10-06T07:23:00.302Z,76.07
2022-10-06T07:24:00.286Z,76.07
2022-10-06T07:25:02.132Z,76.07
2022-10-06T07:26:00.281Z,76.07
2022-10-06T07:27:00.312Z,75.84
2022-10-06T07:28:00.347Z,75.84
2022-10-06T07:29:00.308Z,75.84
2022-10-06T07:30:00.426Z,75.84
2022-10-06T07:31:00.400Z,75.84
2022-10-06T07:32:00.277Z,75.79
2022-10-06T07:33:00.281Z,75.79
2022-10-06T07:34:00.447Z,75.79
2022-10-06T07:35:00.319Z,75.79
2022-10-06T07:36:01.170Z,75.79
2022-10-06T07:37:04.059Z,75.80
2022-10-06T07:38:01.034Z,75.80
2022-10-06T07:39:00.260Z,75.80
2022-10-06T07:40:00.458Z,75.80
2022-10-06T07:41:18.419Z,75.80
2022-10-06T07:42:00.281Z,75.76
2022-10-06T07:43:00.286Z,75.76
2022-10-06T07:44:02.541Z,75.76
2022-10-06T07:45:00.318Z,75.76
2022-10-06T07:46:00.371Z,75.76
2022-10-06T07:47:00.304Z,75.51
2022-10-06T07:48:00.855Z,75.51
2022-10-06T07:49:00.285Z,75.51
2022-10-06T07:50:00.364Z,75.51
2022-10-06T07:51:00.267Z,75.51
2022-10-06T07:52:00.666Z,75.84
2022-10-06T07:53:00.305Z,75.84
2022-10-06T07:54:00.721Z,75.84
2022-10-06T07:55:00.290Z,75.84
2022-10-06T07:56:04.387Z,75.84
2022-10-06T07:57:00.270Z,75.51
2022-10-06T07:58:00.269Z,75.51
2022-10-06T07:59:00.351Z,75.51
2022-10-06T08:00:03.367Z,75.51
2022-10-06T08:01:04.947Z,75.51
2022-10-06T08:02:00.324Z,75.21
2022-10-06T08:03:00.376Z,75.21
2022-10-06T08:04:00.272Z,75.21
2022-10-06T08:05:00.324Z,75.21
2022-10-06T08:06:00.694Z,75.21
2022-10-06T08:07:00.518Z,75.07
2022-10-06T08:08:00.320Z,75.07
2022-10-06T08:09:00.667Z,75.07
2022-10-06T08:10:00.358Z,75.07
2022-10-06T08:11:01.490Z,75.07
2022-10-06T08:12:00.342Z,74.76
2022-10-06T08:13:03.335Z,74.76
2022-10-06T08:14:00.278Z,74.76
2022-10-06T08:15:02.946Z,74.76
2022-10-06T08:16:04.769Z,74.76
2022-10-06T08:17:00.279Z,75.05
2022-10-06T08:18:01.292Z,75.05
2022-10-06T08:19:00.304Z,75.05
2022-10-06T08:20:00.310Z,75.05
2022-10-06T08:21:06.959Z,75.05
2022-10-06T08:22:04.676Z,75.25
2022-10-06T08:23:00.328Z,75.25
2022-10-06T08:24:00.599Z,75.25
2022-10-06T08:25:06.250Z,75.25
2022-10-06T08:26:00.273Z,75.25
2022-10-06T08:27:00.287Z,74.67
2022-10-06T08:28:00.317Z,74.67
2022-10-06T08:29:00.630Z,74.67
2022-10-06T08:30:00.639Z,74.67
2022-10-06T08:31:04.602Z,74.67
2022-10-06T08:32:00.440Z,74.16
2022-10-06T08:33:00.291Z,74.16
2022-10-06T08:34:00.292Z,74.16
2022-10-06T08:35:00.364Z,74.16
2022-10-06T08:36:02.770Z,74.16
2022-10-06T08:37:19.308Z,74.53
2022-10-06T08:38:00.748Z,74.53
2022-10-06T08:39:00.291Z,74.53
2022-10-06T08:40:00.342Z,74.53
2022-10-06T08:41:00.400Z,74.53
2022-10-06T08:42:00.319Z,74.15
2022-10-06T08:43:01.230Z,74.15
2022-10-06T08:44:04.446Z,74.15
2022-10-06T08:45:02.631Z,74.15
2022-10-06T08:46:02.643Z,74.15
2022-10-06T08:47:02.787Z,73.86
2022-10-06T08:48:03.196Z,73.86
2022-10-06T08:49:00.508Z,73.86
2022-10-06T08:50:02.458Z,73.86
2022-10-06T08:51:00.273Z,73.86
2022-10-06T08:52:03.545Z,74.55
2022-10-06T08:53:14.119Z,74.55
2022-10-06T08:54:07.670Z,74.55
2022-10-06T08:55:10.219Z,74.55
2022-10-06T08:56:10.197Z,74.55
2022-10-06T08:57:03.559Z,74.34
2022-10-06T08:58:00.289Z,74.34
2022-10-06T08:59:01.715Z,74.34
2022-10-06T09:00:00.425Z,74.34
2022-10-06T09:01:10.294Z,74.34
2022-10-06T09:02:00.387Z,73.92
2022-10-06T09:03:00.908Z,73.92
2022-10-06T09:04:02.580Z,73.92
2022-10-06T09:05:01.576Z,73.92
2022-10-06T09:06:06.372Z,73.92
2022-10-06T09:07:00.353Z,73.69
2022-10-06T09:08:01.315Z,73.69
2022-10-06T09:09:10.190Z,73.69
2022-10-06T09:10:01.304Z,73.69
2022-10-06T09:11:10.244Z,73.69
2022-10-06T09:12:10.179Z,73.70
2022-10-06T09:13:03.799Z,73.70
2022-10-06T09:14:03.517Z,73.70
2022-10-06T09:15:10.181Z,73.70
2022-10-06T09:16:03.064Z,73.70
2022-10-06T09:17:02.161Z,73.21
2022-10-06T09:18:10.190Z,73.21
2022-10-06T09:19:10.182Z,73.21
2022-10-06T09:20:02.513Z,73.21
2022-10-06T09:21:01.447Z,73.21
2022-10-06T09:22:01.908Z,73.40
2022-10-06T09:23:01.076Z,73.40
2022-10-06T09:24:05.075Z,73.40
2022-10-06T09:25:10.185Z,73.40
2022-10-06T09:26:01.136Z,73.40
2022-10-06T09:27:10.172Z,72.88
2022-10-06T09:28:00.980Z,72.88
2022-10-06T09:29:00.765Z,72.88
2022-10-06T09:30:00.798Z,72.88
2022-10-06T09:31:00.722Z,72.88
2022-10-06T09:32:00.397Z,72.19
2022-10-06T09:33:02.185Z,72.19
2022-10-06T09:34:03.062Z,72.19
2022-10-06T09:35:00.303Z,72.19
2022-10-06T09:36:02.267Z,72.19
2022-10-06T09:37:02.655Z,71.84
2022-10-06T09:38:07.087Z,71.84
2022-10-06T09:39:00.314Z,71.84
2022-10-06T09:40:00.446Z,71.84
2022-10-06T09:41:00.369Z,71.84
2022-10-06T09:42:01.328Z,71.57
2022-10-06T09:43:01.252Z,71.57
2022-10-06T09:44:03.580Z,71.57
2022-10-06T09:45:01.303Z,71.57
2022-10-06T09:47:00.290Z,71.52
2022-10-06T09:48:10.172Z,71.52
2022-10-06T09:49:10.324Z,71.52
2022-10-06T09:50:01.354Z,71.52
2022-10-06T09:51:10.185Z,71.52
2022-10-06T09:52:03.276Z,71.47
2022-10-06T09:53:02.320Z,71.47
2022-10-06T09:54:08.874Z,71.47
2022-10-06T09:55:09.071Z,71.47
2022-10-06T09:56:01.761Z,71.47
2022-10-06T09:57:06.724Z,71.47
2022-10-06T09:58:00.475Z,71.47
2022-10-06T09:59:00.309Z,71.47
2022-10-06T10:00:00.609Z,71.47
2022-10-06T10:01:02.136Z,71.47
2022-10-06T10:02:00.884Z,70.99
2022-10-06T10:03:02.979Z,70.99
2022-10-06T10:04:20.053Z,70.99
2022-10-06T10:05:00.440Z,70.99
2022-10-06T10:06:00.342Z,70.99
2022-10-06T10:07:10.183Z,71.09
2022-10-06T10:08:02.217Z,71.09
2022-10-06T10:09:10.264Z,71.09
2022-10-06T10:10:10.200Z,71.09
2022-10-06T10:11:07.776Z,71.09
2022-10-06T10:12:00.376Z,70.42
2022-10-06T10:13:00.430Z,70.42
2022-10-06T10:14:00.389Z,70.42
2022-10-06T10:15:00.249Z,70.42
2022-10-06T10:16:02.014Z,70.42
2022-10-06T10:17:05.876Z,70.20
2022-10-06T10:18:01.786Z,70.20
2022-10-06T10:19:01.411Z,70.20
2022-10-06T10:20:01.052Z,70.20
2022-10-06T10:21:02.212Z,70.20
2022-10-06T10:22:01.423Z,70.09
2022-10-06T10:23:10.180Z,70.09
2022-10-06T10:24:02.065Z,70.09
2022-10-06T10:25:05.008Z,70.09
2022-10-06T10:26:10.172Z,70.09
2022-10-06T10:27:07.271Z,69.72
2022-10-06T10:28:10.232Z,69.72
2022-10-06T10:29:05.382Z,69.72
2022-10-06T10:30:06.222Z,69.72
2022-10-06T10:31:07.161Z,69.72
2022-10-06T10:32:01.329Z,69.48
2022-10-06T10:33:06.843Z,69.48
2022-10-06T10:34:12.561Z,69.48
2022-10-06T10:35:09.566Z,69.48
2022-10-06T10:36:02.164Z,69.48
2022-10-06T10:37:04.315Z,69.01
2022-10-06T10:38:14.527Z,69.01
2022-10-06T10:39:00.666Z,69.01
2022-10-06T10:40:10.193Z,69.01
2022-10-06T10:41:00.241Z,69.01
2022-10-06T10:42:03.287Z,68.71
2022-10-06T10:43:05.792Z,68.71
2022-10-06T10:44:08.249Z,68.71
2022-10-06T10:45:01.167Z,68.71
2022-10-06T10:46:10.289Z,68.71
2022-10-06T10:47:05.162Z,68.49
2022-10-06T10:48:03.932Z,68.49
2022-10-06T10:49:08.685Z,68.49
2022-10-06T10:50:03.510Z,68.49
2022-10-06T10:51:04.044Z,68.49
2022-10-06T10:52:07.659Z,68.23
2022-10-06T10:53:06.668Z,68.23
2022-10-06T10:54:03.734Z,68.23
2022-10-06T10:55:10.206Z,68.23
2022-10-06T10:56:00.772Z,68.23
2022-10-06T10:57:00.433Z,67.69
2022-10-06T10:58:06.641Z,67.69
2022-10-06T10:59:09.924Z,67.69
2022-10-06T11:00:02.351Z,67.69
2022-10-06T11:01:04.083Z,67.69
2022-10-06T11:02:10.233Z,67.07
2022-10-06T11:03:00.292Z,67.07
2022-10-06T11:04:00.476Z,67.07
2022-10-06T11:05:03.853Z,67.07
2022-10-06T11:06:09.130Z,67.07
2022-10-06T11:07:08.826Z,66.45
2022-10-06T11:08:10.170Z,66.45
2022-10-06T11:09:02.155Z,66.45
2022-10-06T11:10:10.197Z,66.45
2022-10-06T11:11:03.511Z,66.45
2022-10-06T11:12:00.252Z,66.23
2022-10-06T11:13:10.166Z,66.23
2022-10-06T11:14:01.665Z,66.23
2022-10-06T11:15:10.192Z,66.23
2022-10-06T11:16:10.216Z,66.23
2022-10-06T11:17:08.096Z,66.02
2022-10-06T11:18:09.865Z,66.02
2022-10-06T11:19:10.248Z,66.02
2022-10-06T11:20:00.259Z,66.02
2022-10-06T11:21:09.484Z,66.02
2022-10-06T11:22:10.165Z,65.67
2022-10-06T11:23:10.170Z,65.67
2022-10-06T11:24:00.253Z,65.67
2022-10-06T11:25:10.191Z,65.67
2022-10-06T11:26:10.165Z,65.67
2022-10-06T11:27:03.619Z,64.52
2022-10-06T11:28:10.234Z,64.52
2022-10-06T11:29:10.161Z,64.52
2022-10-06T11:30:04.544Z,64.52
2022-10-06T11:31:07.825Z,64.52
2022-10-06T11:32:00.348Z,64.00
2022-10-06T11:33:01.315Z,64.00
2022-10-06T11:34:01.455Z,64.00
2022-10-06T11:35:00.740Z,64.00
2022-10-06T11:36:01.628Z,64.00
2022-10-06T11:37:10.181Z,63.88
2022-10-06T11:38:06.695Z,63.88
2022-10-06T11:39:06.489Z,63.88
2022-10-06T11:40:10.228Z,63.88
2022-10-06T11:41:00.244Z,63.88
2022-10-06T11:42:01.267Z,64.00
2022-10-06T11:43:00.291Z,64.00
2022-10-06T11:44:00.357Z,64.00
2022-10-06T11:45:02.960Z,64.00
2022-10-06T11:46:01.341Z,64.00
2022-10-06T11:47:03.045Z,63.66
2022-10-06T11:48:03.657Z,63.66
2022-10-06T11:49:10.238Z,63.66
2022-10-06T11:50:00.551Z,63.66
2022-10-06T11:51:10.176Z,63.66
2022-10-06T11:52:10.197Z,62.47
2022-10-06T11:53:00.293Z,62.47
2022-10-06T11:54:00.364Z,62.47
2022-10-06T11:55:10.197Z,62.47
2022-10-06T11:56:10.175Z,62.47
2022-10-06T11:57:00.285Z,61.03
2022-10-06T11:58:12.584Z,61.03
2022-10-06T11:59:07.752Z,61.03
2022-10-06T12:00:01.308Z,61.03
2022-10-06T12:01:00.275Z,61.03
2022-10-06T12:02:00.895Z,60.66
2022-10-06T12:03:10.259Z,60.66
2022-10-06T12:04:07.748Z,60.66
2022-10-06T12:05:28.444Z,60.66
2022-10-06T12:06:00.283Z,60.66
2022-10-06T12:07:00.841Z,61.38
2022-10-06T12:08:00.252Z,61.38
2022-10-06T12:09:00.289Z,61.38
2022-10-06T12:10:10.258Z,61.38
2022-10-06T12:11:00.332Z,61.38
2022-10-06T12:12:05.545Z,61.45
2022-10-06T12:13:11.366Z,61.45
2022-10-06T12:15:17.850Z,61.45
2022-10-06T12:17:08.608Z,61.45
2022-10-06T12:17:13.007Z,60.51
2022-10-06T12:18:00.250Z,60.51
2022-10-06T12:19:03.604Z,60.51
2022-10-06T12:20:10.364Z,60.51
2022-10-06T12:21:09.873Z,60.51
2022-10-06T12:22:01.412Z,59.44
2022-10-06T12:23:07.662Z,59.44
2022-10-06T12:24:10.211Z,59.44
2022-10-06T12:25:09.072Z,59.44
2022-10-06T12:26:04.901Z,59.44
2022-10-06T12:27:07.798Z,59.58
2022-10-06T12:28:10.231Z,59.58
2022-10-06T12:29:01.287Z,59.58
2022-10-06T12:30:10.182Z,59.58
2022-10-06T12:31:00.328Z,59.58
2022-10-06T12:32:03.567Z,59.24
2022-10-06T12:33:00.349Z,59.24
2022-10-06T12:34:01.103Z,59.24
2022-10-06T12:35:02.297Z,59.24
2022-10-06T12:36:01.435Z,59.24
2022-10-06T12:37:10.180Z,58.98
2022-10-06T12:38:04.909Z,58.98
2022-10-06T12:39:00.261Z,58.98
2022-10-06T12:40:10.281Z,58.98
2022-10-06T12:41:00.477Z,58.98
2022-10-06T12:42:01.581Z,58.84
2022-10-06T12:43:10.235Z,58.84
2022-10-06T12:44:00.269Z,58.84
2022-10-06T12:45:00.929Z,58.84
2022-10-06T12:46:01.387Z,58.84
2022-10-06T12:47:02.603Z,58.36
2022-10-06T12:48:01.608Z,58.36
2022-10-06T12:49:01.273Z,58.36
2022-10-06T12:50:02.110Z,58.36
2022-10-06T12:51:03.716Z,58.36
2022-10-06T12:52:10.165Z,57.29
2022-10-06T12:53:03.787Z,57.29
2022-10-06T12:54:03.592Z,57.29